createdAt,value
2022-07-27T00:01:35.814Z,96942.28
2022-07-27T00:04:04.107Z,96944.69
2022-07-27T00:06:32.362Z,96938.72
2022-07-27T00:09:00.649Z,96925.22
2022-07-27T00:11:28.981Z,96930.19
2022-07-27T00:13:57.201Z,96924.97
2022-07-27T00:16:25.472Z,96918.84
2022-07-27T00:18:55.136Z,96913.13
2022-07-27T00:21:23.423Z,96914.91
2022-07-27T00:23:51.656Z,96913.56
2022-07-27T00:26:20.123Z,96916.72
2022-07-27T00:28:48.354Z,96913.59
2022-07-27T00:31:16.806Z,96915.38
2022-07-27T00:33:45.202Z,96908.47
2022-07-27T00:36:15.000Z,96914.13
2022-07-27T00:38:43.247Z,96906.59
2022-07-27T00:41:11.523Z,96903.13
2022-07-27T00:43:56.165Z,96911.59
2022-07-27T00:46:24.724Z,96907.50
2022-07-27T00:48:53.719Z,96910.22
2022-07-27T00:51:23.640Z,96908.91
2022-07-27T00:53:53.403Z,96903.28
2022-07-27T00:56:22.643Z,96898.84
2022-07-27T00:58:53.005Z,96904.03
2022-07-27T01:01:22.345Z,96887.78
2022-07-27T01:03:50.745Z,96892.97
2022-07-27T01:06:27.058Z,96877.25
2022-07-27T01:09:18.395Z,96881.78
2022-07-27T01:11:47.322Z,96889.03
2022-07-27T01:14:17.535Z,96885.56
2022-07-27T01:16:47.045Z,96890.53
2022-07-27T01:19:16.326Z,96892.00
2022-07-27T01:21:46.179Z,96891.41
2022-07-27T01:24:14.505Z,96895.72
2022-07-27T01:26:42.894Z,96889.41
2022-07-27T01:29:11.434Z,96897.25
2022-07-27T01:31:39.999Z,96904.94
2022-07-27T01:34:08.313Z,96906.44
2022-07-27T01:36:37.451Z,96896.00
2022-07-27T01:39:07.303Z,96891.94
2022-07-27T01:41:35.533Z,96904.34
2022-07-27T01:44:03.829Z,96903.81
2022-07-27T01:46:32.432Z,96908.41
2022-07-27T01:49:01.005Z,96915.03
2022-07-27T01:51:29.595Z,96912.41
2022-07-27T01:53:58.173Z,96909.50
2022-07-27T01:56:28.074Z,96911.38
2022-07-27T01:58:56.593Z,96900.72
2022-07-27T02:01:24.874Z,96897.91
2022-07-27T02:03:53.356Z,96885.47
2022-07-27T02:06:21.616Z,96893.63
2022-07-27T02:08:49.835Z,96887.38
2022-07-27T02:11:49.239Z,96890.69
2022-07-27T02:14:17.753Z,96881.44
2022-07-27T02:16:50.662Z,96879.94
2022-07-27T02:19:19.223Z,96875.47
2022-07-27T02:21:47.467Z,96874.00
2022-07-27T02:24:15.676Z,96866.78
2022-07-27T02:26:45.351Z,96875.13
2022-07-27T02:29:17.691Z,96867.78
2022-07-27T02:31:46.707Z,96876.81
2022-07-27T02:34:14.848Z,96865.25
2022-07-27T02:36:45.645Z,96873.91
2022-07-27T02:39:16.715Z,96869.44
2022-07-27T02:41:47.819Z,96868.94
2022-07-27T02:44:17.769Z,96861.06
2022-07-27T02:46:48.978Z,96865.56
2022-07-27T02:49:19.929Z,96870.19
2022-07-27T02:51:51.887Z,96862.69
2022-07-27T02:54:20.100Z,96861.03
2022-07-27T02:56:50.344Z,96859.56
2022-07-27T02:59:19.157Z,96863.22
2022-07-27T03:01:47.624Z,96857.34
2022-07-27T03:04:16.323Z,96862.31
2022-07-27T03:06:44.845Z,96866.19
2022-07-27T03:09:13.810Z,96863.53
2022-07-27T03:11:42.429Z,96868.84
2022-07-27T03:14:12.005Z,96866.41
2022-07-27T03:16:40.097Z,96867.66
2022-07-27T03:19:08.479Z,96869.84
2022-07-27T03:21:36.792Z,96878.34
2022-07-27T03:24:05.037Z,96880.41
2022-07-27T03:26:33.504Z,96880.84
2022-07-27T03:29:01.457Z,96875.50
2022-07-27T03:31:30.984Z,96887.28
2022-07-27T03:33:58.996Z,96879.84
2022-07-27T03:36:27.006Z,96868.81
2022-07-27T03:38:54.960Z,96879.16
2022-07-27T03:41:22.979Z,96878.94
2022-07-27T03:43:50.959Z,96882.41
2022-07-27T03:46:19.038Z,96886.72
2022-07-27T03:48:48.513Z,96892.72
2022-07-27T03:51:16.539Z,96899.66
2022-07-27T03:53:44.856Z,96901.19
2022-07-27T03:56:12.886Z,96897.84
2022-07-27T03:58:41.428Z,96882.47
2022-07-27T04:01:09.444Z,96879.94
2022-07-27T04:03:42.386Z,96873.78
2022-07-27T04:06:13.566Z,96876.13
2022-07-27T04:08:41.578Z,96873.44
2022-07-27T04:11:09.667Z,96874.00
2022-07-27T04:13:39.954Z,96874.06
2022-07-27T04:16:09.366Z,96873.03
2022-07-27T04:18:37.338Z,96876.84
2022-07-27T04:21:06.499Z,96869.44
2022-07-27T04:23:38.280Z,96873.47
2022-07-27T04:26:06.957Z,96864.81
2022-07-27T04:28:36.174Z,96862.56
2022-07-27T04:31:04.219Z,96867.34
2022-07-27T04:33:33.135Z,96869.53
2022-07-27T04:36:01.227Z,96865.28
2022-07-27T04:38:29.218Z,96866.63
2022-07-27T04:40:58.613Z,96864.50
2022-07-27T04:43:29.032Z,96868.78
2022-07-27T04:45:58.000Z,96867.50
2022-07-27T04:48:26.107Z,96867.09
2022-07-27T04:50:54.776Z,96862.03
2022-07-27T04:53:22.826Z,96859.34
2022-07-27T04:55:50.886Z,96857.06
2022-07-27T04:58:20.416Z,96860.72
2022-07-27T05:00:48.893Z,96863.09
2022-07-27T05:03:16.978Z,96877.69
2022-07-27T05:05:49.976Z,96879.00
2022-07-27T05:08:19.330Z,96886.88
2022-07-27T05:10:47.721Z,96898.09
2022-07-27T05:13:15.757Z,96902.25
2022-07-27T05:15:54.253Z,96910.19
2022-07-27T05:18:24.026Z,96917.91
2022-07-27T05:20:52.186Z,96911.28
2022-07-27T05:23:20.196Z,96915.59
2022-07-27T05:25:48.287Z,96916.09
2022-07-27T05:28:16.296Z,96919.44
2022-07-27T05:30:45.744Z,96921.28
2022-07-27T05:33:13.846Z,96919.97
2022-07-27T05:35:43.016Z,96927.91
2022-07-27T05:38:11.108Z,96921.28
2022-07-27T05:40:39.298Z,96930.50
2022-07-27T05:43:07.410Z,96941.06
2022-07-27T05:45:35.572Z,96945.28
2022-07-27T05:48:06.117Z,96944.16
2022-07-27T05:50:34.247Z,96956.53
2022-07-27T05:53:02.376Z,96952.47
2022-07-27T05:55:30.679Z,96949.63
2022-07-27T05:57:59.077Z,96940.78
2022-07-27T06:00:27.386Z,96953.13
2022-07-27T06:02:56.011Z,96947.41
2022-07-27T06:05:26.407Z,96953.63
2022-07-27T06:07:59.554Z,96964.88
2022-07-27T06:10:28.550Z,96965.44
2022-07-27T06:12:57.447Z,96965.31
2022-07-27T06:15:25.964Z,96957.41
2022-07-27T06:17:54.278Z,96955.56
2022-07-27T06:20:23.956Z,96953.00
2022-07-27T06:22:54.888Z,96964.69
2022-07-27T06:25:34.485Z,96964.31
2022-07-27T06:28:05.326Z,96954.31
2022-07-27T06:30:33.769Z,96958.16
2022-07-27T06:33:04.362Z,96957.38
2022-07-27T06:35:33.107Z,96956.63
2022-07-27T06:38:03.548Z,96954.38
2022-07-27T06:40:32.402Z,96949.38
2022-07-27T06:43:01.297Z,96949.72
2022-07-27T06:45:29.748Z,96958.22
2022-07-27T06:47:57.800Z,96954.69
2022-07-27T06:50:26.173Z,96957.28
2022-07-27T06:52:54.218Z,96956.53
2022-07-27T06:55:23.674Z,96958.91
2022-07-27T06:57:51.718Z,96955.81
2022-07-27T07:00:19.828Z,96953.84
2022-07-27T07:02:55.097Z,96950.09
2022-07-27T07:05:24.327Z,96950.41
2022-07-27T07:07:52.905Z,96949.66
2022-07-27T07:10:21.760Z,96941.03
2022-07-27T07:12:56.191Z,96942.13
2022-07-27T07:15:25.239Z,96937.34
2022-07-27T07:17:53.527Z,96936.09
2022-07-27T07:20:21.576Z,96936.56
2022-07-27T07:22:49.577Z,96926.53
2022-07-27T07:25:18.144Z,96928.19
2022-07-27T07:27:46.157Z,96934.44
2022-07-27T07:30:15.938Z,96928.50
2022-07-27T07:32:43.947Z,96929.16
2022-07-27T07:35:12.518Z,96925.06
2022-07-27T07:37:40.706Z,96919.31
2022-07-27T07:43:01.124Z,96915.13
2022-07-27T07:45:32.157Z,96912.16
2022-07-27T07:48:00.263Z,96911.38
2022-07-27T07:50:29.269Z,96906.47
2022-07-27T07:52:57.405Z,96915.41
2022-07-27T07:55:27.761Z,96911.69
2022-07-27T07:57:57.261Z,96914.09
2022-07-27T08:00:25.818Z,96921.44
2022-07-27T08:02:57.914Z,96926.16
2022-07-27T08:05:26.848Z,96921.72
2022-07-27T08:07:55.239Z,96919.16
2022-07-27T08:10:24.233Z,96918.63
2022-07-27T08:12:54.210Z,96921.19
2022-07-27T08:15:34.605Z,96914.31
2022-07-27T08:18:06.002Z,96911.53
2022-07-27T08:20:34.744Z,96913.22
2022-07-27T08:23:03.589Z,96914.13
2022-07-27T08:25:32.047Z,96919.53
2022-07-27T08:28:02.755Z,96909.84
2022-07-27T08:30:32.421Z,96915.25
2022-07-27T08:33:03.086Z,96921.50
2022-07-27T08:35:33.257Z,96919.03
2022-07-27T08:38:02.238Z,96912.53
2022-07-27T08:40:46.813Z,96910.03
2022-07-27T08:43:24.002Z,96914.16
2022-07-27T08:45:56.758Z,96908.44
2022-07-27T08:48:26.317Z,96912.09
2022-07-27T08:50:56.238Z,96917.19
2022-07-27T08:53:24.996Z,96912.00
2022-07-27T08:55:53.536Z,96915.56
2022-07-27T08:58:21.607Z,96912.72
2022-07-27T09:00:51.109Z,96905.75
2022-07-27T09:03:21.840Z,96910.38
2022-07-27T09:05:52.768Z,96908.84
2022-07-27T09:08:24.690Z,96915.22
2022-07-27T09:10:54.775Z,96906.88
2022-07-27T09:13:25.428Z,96911.69
2022-07-27T09:16:16.956Z,96912.03
2022-07-27T09:18:44.156Z,96904.53
2022-07-27T09:21:15.016Z,96905.22
2022-07-27T09:23:48.223Z,96901.81
2022-07-27T09:26:31.751Z,96899.53
2022-07-27T09:29:03.226Z,96906.66
2022-07-27T09:31:32.067Z,96904.88
2022-07-27T09:34:01.474Z,96909.72
2022-07-27T09:36:30.962Z,96911.22
2022-07-27T09:39:03.805Z,96904.16
2022-07-27T09:41:43.166Z,96909.84
2022-07-27T09:44:31.237Z,96900.22
2022-07-27T09:46:59.788Z,96904.09
2022-07-27T09:49:32.234Z,96902.38
2022-07-27T09:52:02.209Z,96901.94
2022-07-27T09:54:45.389Z,96899.28
2022-07-27T09:57:13.738Z,96904.50
2022-07-27T09:59:41.951Z,96907.47
2022-07-27T10:02:10.458Z,96903.19
2022-07-27T10:04:38.686Z,96898.91
2022-07-27T10:07:12.484Z,96910.03
2022-07-27T10:09:41.176Z,96906.06
2022-07-27T10:12:11.347Z,96905.56
2022-07-27T10:14:39.400Z,96911.00
2022-07-27T10:17:08.339Z,96906.91
2022-07-27T10:19:44.977Z,96907.28
2022-07-27T10:22:13.116Z,96906.63
2022-07-27T10:24:41.197Z,96900.66
2022-07-27T10:27:28.249Z,96898.72
2022-07-27T10:29:57.737Z,96910.13
2022-07-27T10:32:27.267Z,96911.38
2022-07-27T10:34:55.565Z,96910.91
2022-07-27T10:37:28.087Z,96908.97
2022-07-27T10:40:12.771Z,96915.16
2022-07-27T10:42:42.548Z,96904.41
2022-07-27T10:45:12.494Z,96912.13
2022-07-27T10:47:44.778Z,96908.63
2022-07-27T10:50:36.698Z,96909.56
2022-07-27T10:53:08.051Z,96905.25
2022-07-27T10:55:49.747Z,96906.56
2022-07-27T10:58:47.805Z,96903.56
2022-07-27T11:01:25.061Z,96895.00
2022-07-27T11:03:53.885Z,96891.78
2022-07-27T11:06:41.970Z,96883.91
2022-07-27T11:12:05.368Z,96885.53
2022-07-27T11:14:45.128Z,96886.13
2022-07-27T11:20:04.079Z,96886.16
2022-07-27T11:25:21.917Z,96889.31
2022-07-27T11:27:50.767Z,96901.28
2022-07-27T11:30:29.417Z,96896.06
2022-07-27T11:32:57.743Z,96904.78
2022-07-27T11:35:25.888Z,96903.94
2022-07-27T11:38:02.031Z,96906.97
2022-07-27T11:40:58.092Z,96904.06
2022-07-27T11:43:41.543Z,96912.34
2022-07-27T11:46:20.664Z,96902.13
2022-07-27T11:49:07.897Z,96908.72
2022-07-27T11:51:37.499Z,96908.50
2022-07-27T11:54:07.269Z,96902.34
2022-07-27T11:56:37.101Z,96912.31
2022-07-27T11:59:15.047Z,96913.97
2022-07-27T12:01:47.520Z,96910.81
2022-07-27T12:04:28.619Z,96902.03
2022-07-27T12:07:00.859Z,96908.25
2022-07-27T12:09:38.233Z,96906.44
2022-07-27T12:12:12.413Z,96900.59
2022-07-27T12:14:42.393Z,96902.69
2022-07-27T12:17:14.033Z,96900.31
2022-07-27T12:19:42.896Z,96895.56
2022-07-27T12:22:11.140Z,96891.38
2022-07-27T12:24:42.493Z,96892.66
2022-07-27T12:27:14.516Z,96894.03
2022-07-27T12:30:06.987Z,96892.00
2022-07-27T12:32:39.649Z,96885.00
2022-07-27T12:35:19.251Z,96884.06
2022-07-27T12:37:47.357Z,96890.06
2022-07-27T12:40:17.128Z,96893.94
2022-07-27T12:42:46.437Z,96900.97
2022-07-27T12:45:17.156Z,96898.69
2022-07-27T12:47:47.138Z,96901.25
2022-07-27T12:50:17.159Z,96900.91
2022-07-27T12:52:49.032Z,96897.69
2022-07-27T12:55:17.888Z,96897.25
2022-07-27T12:57:55.750Z,96899.94
2022-07-27T13:00:32.667Z,96897.97
2022-07-27T13:03:04.255Z,96899.63
2022-07-27T13:05:32.835Z,96898.13
2022-07-27T13:08:00.979Z,96906.81
2022-07-27T13:10:29.158Z,96908.13
2022-07-27T13:12:57.348Z,96900.75
2022-07-27T13:15:25.538Z,96906.63
2022-07-27T13:17:53.685Z,96903.44
2022-07-27T13:20:23.939Z,96905.00
2022-07-27T13:22:53.178Z,96905.25
2022-07-27T13:25:21.619Z,96904.81
2022-07-27T13:27:50.479Z,96906.75
2022-07-27T13:30:19.578Z,96908.31
2022-07-27T13:32:48.134Z,96909.75
2022-07-27T13:35:17.082Z,96908.09
2022-07-27T13:37:47.069Z,96910.38
2022-07-27T13:40:16.114Z,96913.78
2022-07-27T13:42:44.338Z,96919.59
2022-07-27T13:45:12.905Z,96912.69
2022-07-27T13:47:41.588Z,96916.88
2022-07-27T13:50:17.722Z,96916.16
2022-07-27T13:52:49.008Z,96910.53
2022-07-27T13:55:18.259Z,96914.75
2022-07-27T13:57:47.338Z,96914.31
2022-07-27T14:00:16.261Z,96916.25
2022-07-27T14:02:45.382Z,96921.44
2022-07-27T14:05:14.701Z,96929.31
2022-07-27T14:07:44.685Z,96920.44
2022-07-27T14:10:31.766Z,96913.03
2022-07-27T14:13:08.402Z,96912.53
2022-07-27T14:15:50.378Z,96903.53
2022-07-27T14:18:27.302Z,96905.91
2022-07-27T14:20:56.099Z,96904.97
2022-07-27T14:23:25.245Z,96912.69
2022-07-27T14:25:55.878Z,96914.00
2022-07-27T14:28:24.918Z,96900.13
2022-07-27T14:30:53.277Z,96910.13
2022-07-27T14:33:21.349Z,96906.97
2022-07-27T14:35:49.617Z,96903.88
2022-07-27T14:38:24.899Z,96903.53
2022-07-27T14:41:01.856Z,96904.13
2022-07-27T14:43:30.938Z,96909.28
2022-07-27T14:45:59.337Z,96903.41
2022-07-27T14:48:42.662Z,96904.03
2022-07-27T14:51:15.744Z,96904.94
2022-07-27T14:53:43.796Z,96906.59
2022-07-27T14:56:13.244Z,96899.88
2022-07-27T14:58:41.428Z,96905.44
2022-07-27T15:01:09.614Z,96904.13
2022-07-27T15:03:37.748Z,96899.63
2022-07-27T15:06:05.788Z,96907.31
2022-07-27T15:08:33.866Z,96907.78
2022-07-27T15:11:01.876Z,96912.13
2022-07-27T15:13:31.249Z,96909.44
2022-07-27T15:15:59.316Z,96903.91
2022-07-27T15:18:27.343Z,96918.56
2022-07-27T15:20:55.845Z,96909.75
2022-07-27T15:23:24.098Z,96924.47
2022-07-27T15:25:52.342Z,96919.16
2022-07-27T15:28:20.414Z,96917.47
2022-07-27T15:30:50.036Z,96915.38
2022-07-27T15:33:27.013Z,96923.78
2022-07-27T15:36:04.692Z,96917.38
2022-07-27T15:38:35.937Z,96917.53
2022-07-27T15:41:17.165Z,96911.22
2022-07-27T15:43:54.071Z,96909.66
2022-07-27T15:46:27.364Z,96912.06
2022-07-27T15:48:55.819Z,96899.06
2022-07-27T15:51:25.112Z,96907.72
2022-07-27T15:54:01.139Z,96918.31
2022-07-27T15:56:30.434Z,96913.97
2022-07-27T15:59:06.239Z,96907.84
2022-07-27T16:01:40.615Z,96903.06
2022-07-27T16:04:24.329Z,96913.81
2022-07-27T16:06:55.265Z,96910.47
2022-07-27T16:09:28.166Z,96919.09
2022-07-27T16:12:01.719Z,96912.47
2022-07-27T16:14:32.227Z,96911.13
2022-07-27T16:17:08.916Z,96917.59
2022-07-27T16:19:49.513Z,96904.75
2022-07-27T16:22:23.025Z,96907.56
2022-07-27T16:24:57.161Z,96900.69
2022-07-27T16:27:28.796Z,96901.16
2022-07-27T16:29:58.260Z,96896.59
2022-07-27T16:32:34.949Z,96902.72
2022-07-27T16:35:10.161Z,96897.84
2022-07-27T16:38:03.932Z,96904.44
2022-07-27T16:40:39.132Z,96906.56
2022-07-27T16:43:08.433Z,96907.25
2022-07-27T16:45:41.289Z,96900.25
2022-07-27T16:48:19.713Z,96902.53
2022-07-27T16:50:47.971Z,96905.63
2022-07-27T16:53:18.990Z,96905.88
2022-07-27T16:55:50.948Z,96905.94
2022-07-27T16:58:26.447Z,96904.78
2022-07-27T17:00:58.106Z,96907.44
2022-07-27T17:03:27.697Z,96897.47
2022-07-27T17:06:05.684Z,96902.72
2022-07-27T17:08:41.531Z,96902.59
2022-07-27T17:11:26.768Z,96908.91
2022-07-27T17:16:58.006Z,96907.97
2022-07-27T17:19:32.084Z,96917.94
2022-07-27T17:22:06.773Z,96922.88
2022-07-27T17:24:50.316Z,96926.75
2022-07-27T17:27:19.104Z,96918.91
2022-07-27T17:29:48.929Z,96926.56
2022-07-27T17:32:28.957Z,96925.19
2022-07-27T17:35:02.286Z,96927.53
2022-07-27T17:38:03.512Z,96932.66
2022-07-27T17:40:29.012Z,96931.34
2022-07-27T17:45:50.942Z,96928.94
2022-07-27T17:48:20.878Z,96931.50
2022-07-27T17:50:58.611Z,96939.41
2022-07-27T17:53:29.617Z,96937.75
2022-07-27T17:56:02.920Z,96938.75
2022-07-27T17:58:31.239Z,96946.63
2022-07-27T18:01:04.003Z,96957.38
2022-07-27T18:03:41.811Z,96957.28
2022-07-27T18:06:18.007Z,96955.28
2022-07-27T18:08:51.200Z,96957.00
2022-07-27T18:11:27.724Z,96954.34
2022-07-27T18:13:55.915Z,96965.44
2022-07-27T18:16:27.043Z,96969.47
2022-07-27T18:19:07.893Z,96961.56
2022-07-27T18:21:46.644Z,96963.31
2022-07-27T18:24:21.346Z,96966.06
2022-07-27T18:27:06.371Z,96954.63
2022-07-27T18:29:37.251Z,96955.53
2022-07-27T18:32:09.716Z,96965.81
2022-07-27T18:34:44.716Z,96959.25
2022-07-27T18:37:20.367Z,96957.72
2022-07-27T18:39:51.474Z,96969.28
2022-07-27T18:42:27.336Z,96971.56
2022-07-27T18:45:12.632Z,96973.63
2022-07-27T18:47:40.741Z,96968.19
2022-07-27T18:50:29.166Z,96973.63
2022-07-27T18:53:00.028Z,96976.28
2022-07-27T18:55:35.471Z,96979.34
2022-07-27T18:58:04.374Z,96985.88
2022-07-27T19:00:33.559Z,96987.41
2022-07-27T19:03:02.547Z,96989.19
2022-07-27T19:05:40.471Z,96996.75
2022-07-27T19:08:20.820Z,97000.31
2022-07-27T19:11:01.421Z,96997.31
2022-07-27T19:13:37.845Z,96999.91
2022-07-27T19:16:17.042Z,97010.84
2022-07-27T19:19:01.811Z,97010.34
2022-07-27T19:21:39.488Z,97012.47
2022-07-27T19:24:15.116Z,97021.09
2022-07-27T19:26:51.486Z,97019.84
2022-07-27T19:29:24.026Z,97022.97
2022-07-27T19:32:10.837Z,97033.28
2022-07-27T19:34:48.463Z,97033.88
2022-07-27T19:37:16.662Z,97031.88
2022-07-27T19:39:57.304Z,97030.00
2022-07-27T19:42:40.621Z,97031.00
2022-07-27T19:45:14.440Z,97031.06
2022-07-27T19:47:46.533Z,97032.63
2022-07-27T19:50:22.634Z,97027.09
2022-07-27T19:53:00.789Z,97048.34
2022-07-27T19:55:43.589Z,97052.34
2022-07-27T19:58:17.531Z,97051.28
2022-07-27T20:00:55.237Z,97053.38
2022-07-27T20:03:52.228Z,97051.25
2022-07-27T20:06:29.880Z,97053.13
2022-07-27T20:09:11.326Z,97052.78
2022-07-27T20:11:48.721Z,97061.63
2022-07-27T20:14:34.414Z,97068.97
2022-07-27T20:17:10.357Z,97066.28
2022-07-27T20:19:43.244Z,97072.13
2022-07-27T20:22:16.245Z,97066.06
2022-07-27T20:24:49.131Z,97085.50
2022-07-27T20:27:22.160Z,97079.00
2022-07-27T20:30:06.331Z,97084.94
2022-07-27T20:32:40.203Z,97075.84
2022-07-27T20:35:13.095Z,97081.75
2022-07-27T20:37:53.240Z,97091.53
2022-07-27T20:40:27.635Z,97088.44
2022-07-27T20:43:07.352Z,97090.75
2022-07-27T20:45:47.873Z,97084.44
2022-07-27T20:48:23.292Z,97091.09
2022-07-27T20:51:01.537Z,97091.78
2022-07-27T20:53:45.228Z,97099.56
2022-07-27T20:56:16.332Z,97092.19
2022-07-27T20:58:45.971Z,97097.31
2022-07-27T21:01:25.595Z,97101.59
2022-07-27T21:04:00.343Z,97094.16
2022-07-27T21:06:34.904Z,97092.38
2022-07-27T21:09:10.985Z,97099.81
2022-07-27T21:11:47.670Z,97097.06
2022-07-27T21:14:23.947Z,97097.31
2022-07-27T21:17:27.015Z,97093.09
2022-07-27T21:20:06.534Z,97092.56
2022-07-27T21:22:49.931Z,97099.06
2022-07-27T21:25:26.612Z,97105.69
2022-07-27T21:28:18.354Z,97103.53
2022-07-27T21:31:01.933Z,97105.03
2022-07-27T21:33:39.776Z,97105.84
2022-07-27T21:36:13.215Z,97099.25
2022-07-27T21:38:50.201Z,97109.25
2022-07-27T21:41:31.686Z,97106.28
2022-07-27T21:44:13.024Z,97112.44
2022-07-27T21:46:57.041Z,97104.28
2022-07-27T21:49:37.616Z,97103.00
2022-07-27T21:52:25.175Z,97099.97
2022-07-27T21:54:58.251Z,97097.06
2022-07-27T22:00:20.293Z,97100.34
2022-07-27T22:02:53.712Z,97099.97
2022-07-27T22:05:24.815Z,97099.47
2022-07-27T22:08:01.939Z,97098.09
2022-07-27T22:10:30.949Z,97098.78
2022-07-27T22:13:01.988Z,97101.47
2022-07-27T22:15:36.719Z,97100.84
2022-07-27T22:18:16.129Z,97104.63
2022-07-27T22:21:05.595Z,97105.84
2022-07-27T22:23:36.536Z,97104.06
2022-07-27T22:26:12.141Z,97106.38
2022-07-27T22:28:42.382Z,97106.00
2022-07-27T22:31:16.628Z,97106.00
2022-07-27T22:33:57.030Z,97108.34
2022-07-27T22:36:35.006Z,97123.53
2022-07-27T22:39:06.125Z,97109.72
2022-07-27T22:41:44.279Z,97114.28
2022-07-27T22:44:20.519Z,97110.59
2022-07-27T22:47:00.318Z,97119.31
2022-07-27T22:49:38.381Z,97117.09
2022-07-27T22:52:12.307Z,97120.22
2022-07-27T22:54:43.442Z,97119.94
2022-07-27T22:57:16.092Z,97124.41
2022-07-27T22:59:46.491Z,97120.53
2022-07-27T23:02:31.542Z,97120.38
2022-07-27T23:05:09.243Z,97121.06
2022-07-27T23:07:41.061Z,97117.78
2022-07-27T23:10:32.846Z,97124.97
2022-07-27T23:13:21.306Z,97117.19
2022-07-27T23:15:55.206Z,97117.38
2022-07-27T23:18:32.702Z,97117.03
2022-07-27T23:21:08.368Z,97122.97
2022-07-27T23:23:41.004Z,97117.72
2022-07-27T23:26:34.300Z,97111.75
2022-07-27T23:29:08.516Z,97115.06
2022-07-27T23:31:45.231Z,97114.44
2022-07-27T23:34:18.339Z,97117.91
2022-07-27T23:36:53.859Z,97102.34
2022-07-27T23:39:27.764Z,97111.19
2022-07-27T23:42:03.471Z,97104.81
2022-07-27T23:44:40.107Z,97106.47
2022-07-27T23:47:17.444Z,97099.97
2022-07-27T23:49:51.140Z,97101.56
2022-07-27T23:52:40.502Z,97101.34
2022-07-27T23:55:23.973Z,97109.13
2022-07-27T23:58:04.111Z,97092.94
